Katmandú, Nepal

1:58 PM +0545 en Marzo 28, 2017 (GMT +0545)
Tribhuvan International | | Change Station

Alt 4386 ft 27.70 °N, 85.37 °E | Updated 23 minutes ago

Mostly Cloudy
Muy nublado
72 ° F
Sensación térmica 72 ° F
N
7
Viento Variable Viento desde SO

Hoy
Alta -- | Baja -- ° F
--% Posibilidad de precipitaciones
Ayer
Alta -- | Baja -- ° F
Precip. -- pul
Presión 30.04 pul
Visibilidad 3.7 Millas
Nubes Baja 1500 ft
Nubes dispersas 3000 ft
Muy nublado 10000 ft
Punto de rocío 61 ° F
Humedad 69%
Precipitaciones 0.00 pul
Espesor de la nieve No disponible.
5:58 AM 6:18 PM
Luna nueva, 0% visible
METAR VNKT 280750Z 23006KT 6000 FEW015 SCT030 BKN100 22/16 Q1017 NOSIG
Presión 30.04 pul
Visibilidad 3.7 Millas
Nubes Baja 1500 ft
Nubes dispersas 3000 ft
Muy nublado 10000 ft
Punto de rocío 61 ° F
Humedad 69%
Precipitaciones 0.00 pul
Espesor de la nieve No disponible.
5:58 AM 6:18 PM
Luna nueva, 0% visible
METAR VNKT 280750Z 23006KT 6000 FEW015 SCT030 BKN100 22/16 Q1017 NOSIG

Get Severe Weather Alerts

Thanks for signing up!

Be on the lookout for a verification email in your inbox.

You'll start receiving the daily forecast at 8 AM.

×

10-Day Weather Forecast

No radar image for this location.
×

Almanac

Astronomía

Mar. 28, 2017 Salida Puesta
Hora real
Crepúsculo civil
Crepúsculo náutico
Crepúsculo astronómico
Luna
Horas de luz
Horas de luz
Tomorrow will be .
, % of the Moon is Illuminated

Extremos de hoy

Máximos del país Bajas del país

Community

WunderPhotos

Upload Photos

1,962,540 ¡fotos cargadas!

WunderBlog® & News

Nearby

Calidad del aire

  Calidad del aire Índice AQ Contaminante
Not available.

Grosos de nieve

Estación Profundido Altura

Actividad de terremotos

Ciudad Distance Mag. Tiempo y dato
Magnitud mínima muestra es 2,5.

Actividad de terremotos

Ciudad Distance Mag. Tiempo y dato
Magnitud mínima muestra es 2,5.

Temperaturas de aguas costeras

Lugar Temperatura

Stations

Estaciones meteorológicas cercanas

Ubicación de la estación Temp. Vientos helados Punto de rocío Humedad Viento Precip. Alt Actualizado Tipo